Joint Base McGuire-Dix-Lakehurst

Airport
ICAO code: 
KWRI
Summary
ICAO Region: 
NAM
Territory: 
Location: 
Wrightstown, New Jersey,
Serving: 
Trenton
Elevation: 
131 ft
Coordinates: 
Aerial View: 
40° 1' 36.451" N, 74° 35' 21.434" W
Metar
Observation
KWRI 040556Z AUTO 00000KT 10SM BKN080 03/M03 A3011 RMK AO2 SLP197 T00341026 10060 20025 51014 $
Station
Mcguire Air Force Base
Date/Time
2021-12-04 05:56:00
Wind direction
Wind speed
00 kts
Lowest cloud amount
broken clouds
Temperature
3.4°C
Dew point
-2.6°C
Humidity
64%
Weather condition
n/a

Description

Joint Base McGuire-Dix-Lakehurst, more commonly referred to as McGuire Air Force Base, is a United States Air Force installation located in Burlington County, New Jersey, approximately 26 km south-southeast of Trenton.

Climatology

Humid “subtropical” climate (Köppen climate classification Cfa) - characterized by hot, humid summers and cool winters. Significant amounts of precipitation occur in all seasons in most areas. Winter rainfall (and sometimes snowfall) is associated with large storms that the westerlies steer from west to east. Most summer rainfall occurs during thunderstorms and occasional tropical storms (hurricanes).

Runways

Designator Length Width Surface Rops
18/36 2176 46 ASP Yes/Yes
6/24 3048 61 ASP Yes/Yes
Airport map: 
Aerial View: 

SKYbrary Partners:

Safety knowledge contributed by: